Fair Seas — V7PD2 — position and weather

sailwx.info

Track history (hours):
 
Tides and Currents Weather Stations Pressure Air Temp Water Temp Dewpoint Dewpoint Depression Visibility Wind Speed Wind Dir Waves Ship Positions

Fair Seas

Last reported at 2017-Oct-21 14:30 UTC. Time now 2017-Oct-23 06:26 UTC.
Position N 40°45' E 029°40'.

Length 250 m; draft 13.3 m.

Type: Tanker. MMSI: 538003211.

Date/timePositionNaut miles runAvg speedWind from/ knotsBaromVisibWave heightAir tempDewpointWater temp
2017-Oct-21 14:30N 40°45' E 029°40'8 0.2
2017-Oct-19 21:50N 40°45' E 029°29'511.0
2017-Oct-19 21:21N 40°43' E 029°22'3 7.7
2017-Oct-19 21:00N 40°43' E 029°19'3 6.9
2017-Oct-19 20:30N 40°44' E 029°14'610.7
2017-Oct-19 19:58N 40°44' E 029°07'510.7
2017-Oct-19 19:30N 40°44' E 029°00'610.5
2017-Oct-19 18:54N 40°44' E 028°52'510.3
2017-Oct-19 18:27N 40°44' E 028°46'610.4
2017-Oct-19 17:55N 40°44' E 028°38'510.4
2017-Oct-19 17:23N 40°44' E 028°31'410.3
2017-Oct-19 17:00N 40°44' E 028°26'510.2
2017-Oct-19 16:28N 40°44' E 028°19'105 9.9
2017-Oct-19 05:52N 40°01' E 026°13'3 6.6
2017-Oct-19 05:23N 40°01' E 026°09'3 7.6
2017-Oct-19 05:00N 39°60' E 026°05'510.3
2017-Oct-19 04:30N 39°58' E 025°59'10 9.2
2017-Oct-19 03:27N 39°48' E 025°56'  
2017-Oct-16 17:41N 37°52' E 025°38'210.7
2017-Oct-16 17:30N 37°50' E 025°39'510.6
2017-Oct-16 17:00N 37°45' E 025°42'610.3
2017-Oct-16 16:25N 37°40' E 025°45'410.0
2017-Oct-16 16:00N 37°36' E 025°46'5 9.9
2017-Oct-16 15:30N 37°31' E 025°49'510.0
2017-Oct-16 15:00N 37°27' E 025°52'  
Track history (hours):
 
Tides and Currents Weather Stations Pressure Air Temp Water Temp Dewpoint Dewpoint Depression Visibility Wind Speed Wind Dir Waves Ship Positions

Fair Seas

Last reported at 2017-Oct-21 14:30 UTC. Time now 2017-Oct-23 06:26 UTC.
Position N 40°45' E 029°40'.

Length 250 m; draft 13.3 m.

Type: Tanker. MMSI: 538003211.

Date/timePositionNaut miles runAvg speedWind from/ knotsBaromVisibWave heightAir tempDewpointWater temp
2017-Oct-21 14:30N 40°45' E 029°40'8 0.2
2017-Oct-19 21:50N 40°45' E 029°29'511.0
2017-Oct-19 21:21N 40°43' E 029°22'3 7.7
2017-Oct-19 21:00N 40°43' E 029°19'3 6.9
2017-Oct-19 20:30N 40°44' E 029°14'610.7
2017-Oct-19 19:58N 40°44' E 029°07'510.7
2017-Oct-19 19:30N 40°44' E 029°00'610.5
2017-Oct-19 18:54N 40°44' E 028°52'510.3
2017-Oct-19 18:27N 40°44' E 028°46'610.4
2017-Oct-19 17:55N 40°44' E 028°38'510.4
2017-Oct-19 17:23N 40°44' E 028°31'410.3
2017-Oct-19 17:00N 40°44' E 028°26'510.2
2017-Oct-19 16:28N 40°44' E 028°19'105 9.9
2017-Oct-19 05:52N 40°01' E 026°13'3 6.6
2017-Oct-19 05:23N 40°01' E 026°09'3 7.6
2017-Oct-19 05:00N 39°60' E 026°05'510.3
2017-Oct-19 04:30N 39°58' E 025°59'10 9.2
2017-Oct-19 03:27N 39°48' E 025°56'  
2017-Oct-16 17:41N 37°52' E 025°38'210.7
2017-Oct-16 17:30N 37°50' E 025°39'510.6
2017-Oct-16 17:00N 37°45' E 025°42'610.3
2017-Oct-16 16:25N 37°40' E 025°45'410.0
2017-Oct-16 16:00N 37°36' E 025°46'5 9.9
2017-Oct-16 15:30N 37°31' E 025°49'510.0
2017-Oct-16 15:00N 37°27' E 025°52'  

Dump ship's entire track history